sensor_id;sensor_type;location;lat;lon;timestamp;P1;durP1;ratioP1;P2;durP2;ratioP2
47784;SDS011;35233;55.686;37.848;2023-02-15T00:01:07;2.00;;;1.38;;
47784;SDS011;35233;55.686;37.848;2023-02-15T00:03:34;2.75;;;1.35;;
47784;SDS011;35233;55.686;37.848;2023-02-15T00:06:00;1.42;;;1.10;;
47784;SDS011;35233;55.686;37.848;2023-02-15T00:08:26;2.17;;;1.25;;
47784;SDS011;35233;55.686;37.848;2023-02-15T00:10:52;1.77;;;1.27;;
47784;SDS011;35233;55.686;37.848;2023-02-15T00:13:17;3.17;;;1.50;;
47784;SDS011;35233;55.686;37.848;2023-02-15T00:15:43;2.45;;;1.60;;
47784;SDS011;35233;55.686;37.848;2023-02-15T00:18:08;3.20;;;1.83;;
47784;SDS011;35233;55.686;37.848;2023-02-15T00:20:34;2.80;;;1.77;;
47784;SDS011;35233;55.686;37.848;2023-02-15T00:22:59;3.00;;;1.63;;
47784;SDS011;35233;55.686;37.848;2023-02-15T00:25:25;9.30;;;1.45;;
47784;SDS011;35233;55.686;37.848;2023-02-15T00:27:50;3.28;;;1.48;;
47784;SDS011;35233;55.686;37.848;2023-02-15T00:30:16;5.65;;;1.80;;
47784;SDS011;35233;55.686;37.848;2023-02-15T00:32:41;1.77;;;1.50;;
47784;SDS011;35233;55.686;37.848;2023-02-15T00:35:07;3.22;;;1.70;;
47784;SDS011;35233;55.686;37.848;2023-02-15T00:37:34;2.42;;;1.58;;
47784;SDS011;35233;55.686;37.848;2023-02-15T00:39:59;1.25;;;1.13;;
47784;SDS011;35233;55.686;37.848;2023-02-15T00:42:25;2.63;;;1.52;;
47784;SDS011;35233;55.686;37.848;2023-02-15T00:44:50;2.85;;;1.50;;
47784;SDS011;35233;55.686;37.848;2023-02-15T00:47:16;3.50;;;1.65;;
47784;SDS011;35233;55.686;37.848;2023-02-15T00:49:41;1.80;;;1.38;;
47784;SDS011;35233;55.686;37.848;2023-02-15T00:52:07;1.58;;;1.10;;
47784;SDS011;35233;55.686;37.848;2023-02-15T00:54:32;5.05;;;1.63;;
47784;SDS011;35233;55.686;37.848;2023-02-15T00:56:59;2.45;;;1.48;;
47784;SDS011;35233;55.686;37.848;2023-02-15T00:59:25;2.58;;;1.60;;
47784;SDS011;35233;55.686;37.848;2023-02-15T01:01:50;1.23;;;1.10;;
47784;SDS011;35233;55.686;37.848;2023-02-15T01:04:15;1.80;;;1.30;;
47784;SDS011;35233;55.686;37.848;2023-02-15T01:06:41;2.28;;;1.60;;
47784;SDS011;35233;55.686;37.848;2023-02-15T01:09:06;3.33;;;1.67;;
47784;SDS011;35233;55.686;37.848;2023-02-15T01:11:32;3.75;;;1.42;;
47784;SDS011;35233;55.686;37.848;2023-02-15T01:13:58;2.90;;;1.65;;
47784;SDS011;35233;55.686;37.848;2023-02-15T01:16:25;1.30;;;1.20;;
47784;SDS011;35233;55.686;37.848;2023-02-15T01:18:52;1.98;;;1.20;;
47784;SDS011;35233;55.686;37.848;2023-02-15T01:21:20;1.77;;;1.27;;
47784;SDS011;35233;55.686;37.848;2023-02-15T01:23:47;4.03;;;1.77;;
47784;SDS011;35233;55.686;37.848;2023-02-15T01:26:13;2.83;;;1.27;;
47784;SDS011;35233;55.686;37.848;2023-02-15T01:28:39;1.85;;;1.33;;
47784;SDS011;35233;55.686;37.848;2023-02-15T01:31:09;2.63;;;1.60;;
47784;SDS011;35233;55.686;37.848;2023-02-15T01:33:36;3.53;;;1.40;;
47784;SDS011;35233;55.686;37.848;2023-02-15T01:36:02;3.20;;;1.55;;
47784;SDS011;35233;55.686;37.848;2023-02-15T01:38:28;2.83;;;1.38;;
47784;SDS011;35233;55.686;37.848;2023-02-15T01:40:54;1.80;;;1.40;;
47784;SDS011;35233;55.686;37.848;2023-02-15T01:43:40;2.78;;;1.38;;
47784;SDS011;35233;55.686;37.848;2023-02-15T01:46:07;2.45;;;1.30;;
47784;SDS011;35233;55.686;37.848;2023-02-15T01:48:36;1.83;;;1.40;;
47784;SDS011;35233;55.686;37.848;2023-02-15T01:51:09;2.60;;;1.45;;
47784;SDS011;35233;55.686;37.848;2023-02-15T01:53:37;1.42;;;1.20;;
47784;SDS011;35233;55.686;37.848;2023-02-15T01:58:36;1.80;;;1.30;;
47784;SDS011;35233;55.686;37.848;2023-02-15T02:01:02;1.85;;;1.35;;
47784;SDS011;35233;55.686;37.848;2023-02-15T02:06:35;1.67;;;1.10;;
47784;SDS011;35233;55.686;37.848;2023-02-15T02:09:03;2.08;;;1.50;;
47784;SDS011;35233;55.686;37.848;2023-02-15T02:11:28;2.10;;;1.23;;
47784;SDS011;35233;55.686;37.848;2023-02-15T02:13:54;1.70;;;1.20;;
47784;SDS011;35233;55.686;37.848;2023-02-15T02:19:19;2.38;;;1.58;;
47784;SDS011;35233;55.686;37.848;2023-02-15T02:27:41;3.25;;;1.50;;
47784;SDS011;35233;55.686;37.848;2023-02-15T02:33:07;1.90;;;1.35;;
47784;SDS011;35233;55.686;37.848;2023-02-15T02:38:05;2.67;;;1.40;;
47784;SDS011;35233;55.686;37.848;2023-02-15T02:40:43;2.90;;;1.60;;
47784;SDS011;35233;55.686;37.848;2023-02-15T02:46:13;2.60;;;1.50;;
47784;SDS011;35233;55.686;37.848;2023-02-15T02:48:40;2.60;;;1.45;;
47784;SDS011;35233;55.686;37.848;2023-02-15T02:51:05;1.42;;;1.13;;
47784;SDS011;35233;55.686;37.848;2023-02-15T02:53:31;2.67;;;1.25;;
47784;SDS011;35233;55.686;37.848;2023-02-15T02:56:06;2.40;;;1.35;;
47784;SDS011;35233;55.686;37.848;2023-02-15T02:58:42;5.15;;;1.80;;
47784;SDS011;35233;55.686;37.848;2023-02-15T03:01:27;2.20;;;1.50;;
47784;SDS011;35233;55.686;37.848;2023-02-15T03:04:10;2.17;;;1.55;;
47784;SDS011;35233;55.686;37.848;2023-02-15T03:06:52;1.63;;;1.23;;
47784;SDS011;35233;55.686;37.848;2023-02-15T03:12:28;2.92;;;1.40;;
47784;SDS011;35233;55.686;37.848;2023-02-15T03:15:03;4.65;;;1.60;;
47784;SDS011;35233;55.686;37.848;2023-02-15T03:17:32;2.45;;;1.60;;
47784;SDS011;35233;55.686;37.848;2023-02-15T03:20:06;3.15;;;1.77;;
47784;SDS011;35233;55.686;37.848;2023-02-15T03:22:40;1.70;;;1.42;;
47784;SDS011;35233;55.686;37.848;2023-02-15T03:25:14;2.58;;;1.60;;
47784;SDS011;35233;55.686;37.848;2023-02-15T03:27:47;2.83;;;2.03;;
47784;SDS011;35233;55.686;37.848;2023-02-15T03:30:17;3.63;;;1.90;;
47784;SDS011;35233;55.686;37.848;2023-02-15T03:32:45;3.03;;;1.70;;
47784;SDS011;35233;55.686;37.848;2023-02-15T03:35:13;2.55;;;1.60;;
47784;SDS011;35233;55.686;37.848;2023-02-15T03:37:50;4.22;;;1.95;;
47784;SDS011;35233;55.686;37.848;2023-02-15T03:40:31;2.90;;;1.98;;
47784;SDS011;35233;55.686;37.848;2023-02-15T03:46:12;3.75;;;2.00;;
47784;SDS011;35233;55.686;37.848;2023-02-15T03:49:24;4.55;;;2.22;;
47784;SDS011;35233;55.686;37.848;2023-02-15T03:51:54;3.03;;;1.80;;
47784;SDS011;35233;55.686;37.848;2023-02-15T03:54:29;3.92;;;2.05;;
47784;SDS011;35233;55.686;37.848;2023-02-15T03:57:21;3.58;;;2.17;;
47784;SDS011;35233;55.686;37.848;2023-02-15T04:06:02;2.40;;;1.65;;
47784;SDS011;35233;55.686;37.848;2023-02-15T04:08:28;5.63;;;2.20;;
47784;SDS011;35233;55.686;37.848;2023-02-15T04:11:12;3.00;;;2.00;;
47784;SDS011;35233;55.686;37.848;2023-02-15T04:13:38;3.92;;;2.03;;
47784;SDS011;35233;55.686;37.848;2023-02-15T04:16:04;5.53;;;2.00;;
47784;SDS011;35233;55.686;37.848;2023-02-15T04:18:34;3.67;;;1.95;;
47784;SDS011;35233;55.686;37.848;2023-02-15T04:21:20;3.67;;;1.88;;
47784;SDS011;35233;55.686;37.848;2023-02-15T04:24:06;3.85;;;1.88;;
47784;SDS011;35233;55.686;37.848;2023-02-15T04:26:51;4.45;;;2.08;;
47784;SDS011;35233;55.686;37.848;2023-02-15T04:29:18;3.50;;;2.10;;
47784;SDS011;35233;55.686;37.848;2023-02-15T04:31:44;4.07;;;1.75;;
47784;SDS011;35233;55.686;37.848;2023-02-15T04:34:10;3.58;;;2.03;;
47784;SDS011;35233;55.686;37.848;2023-02-15T04:36:36;3.90;;;1.90;;
47784;SDS011;35233;55.686;37.848;2023-02-15T04:39:02;3.40;;;1.85;;
47784;SDS011;35233;55.686;37.848;2023-02-15T04:41:28;6.47;;;2.15;;
47784;SDS011;35233;55.686;37.848;2023-02-15T04:43:54;3.35;;;2.17;;
47784;SDS011;35233;55.686;37.848;2023-02-15T04:46:19;2.90;;;1.73;;
47784;SDS011;35233;55.686;37.848;2023-02-15T04:48:45;2.08;;;1.65;;
47784;SDS011;35233;55.686;37.848;2023-02-15T04:51:10;3.60;;;2.05;;
47784;SDS011;35233;55.686;37.848;2023-02-15T04:53:36;4.05;;;1.83;;
47784;SDS011;35233;55.686;37.848;2023-02-15T04:56:02;3.58;;;2.20;;
47784;SDS011;35233;55.686;37.848;2023-02-15T04:58:27;3.60;;;1.85;;
47784;SDS011;35233;55.686;37.848;2023-02-15T05:00:56;2.72;;;1.70;;
47784;SDS011;35233;55.686;37.848;2023-02-15T05:03:21;3.85;;;1.88;;
47784;SDS011;35233;55.686;37.848;2023-02-15T05:05:47;4.57;;;2.22;;
47784;SDS011;35233;55.686;37.848;2023-02-15T05:08:13;5.25;;;2.13;;
47784;SDS011;35233;55.686;37.848;2023-02-15T05:10:38;4.30;;;2.10;;
47784;SDS011;35233;55.686;37.848;2023-02-15T05:13:04;2.78;;;2.08;;
47784;SDS011;35233;55.686;37.848;2023-02-15T05:15:29;5.20;;;2.42;;
47784;SDS011;35233;55.686;37.848;2023-02-15T05:17:55;5.80;;;2.22;;
47784;SDS011;35233;55.686;37.848;2023-02-15T05:20:20;4.07;;;2.20;;
47784;SDS011;35233;55.686;37.848;2023-02-15T05:22:46;4.55;;;2.17;;
47784;SDS011;35233;55.686;37.848;2023-02-15T05:25:11;4.97;;;2.40;;
47784;SDS011;35233;55.686;37.848;2023-02-15T05:27:56;3.80;;;2.50;;
47784;SDS011;35233;55.686;37.848;2023-02-15T05:30:40;3.97;;;2.78;;
47784;SDS011;35233;55.686;37.848;2023-02-15T05:33:06;5.53;;;2.92;;
47784;SDS011;35233;55.686;37.848;2023-02-15T05:35:32;4.70;;;2.83;;
47784;SDS011;35233;55.686;37.848;2023-02-15T05:37:58;5.32;;;3.20;;
47784;SDS011;35233;55.686;37.848;2023-02-15T05:40:24;6.07;;;3.00;;
47784;SDS011;35233;55.686;37.848;2023-02-15T05:42:49;5.63;;;3.00;;
47784;SDS011;35233;55.686;37.848;2023-02-15T05:45:15;5.38;;;3.22;;
47784;SDS011;35233;55.686;37.848;2023-02-15T05:47:40;5.28;;;3.15;;
47784;SDS011;35233;55.686;37.848;2023-02-15T05:50:06;5.60;;;2.90;;
47784;SDS011;35233;55.686;37.848;2023-02-15T05:52:33;5.32;;;2.88;;
47784;SDS011;35233;55.686;37.848;2023-02-15T05:54:59;6.65;;;3.00;;
47784;SDS011;35233;55.686;37.848;2023-02-15T05:57:25;5.60;;;3.28;;
47784;SDS011;35233;55.686;37.848;2023-02-15T05:59:51;4.57;;;2.75;;
47784;SDS011;35233;55.686;37.848;2023-02-15T06:02:17;5.35;;;3.08;;
47784;SDS011;35233;55.686;37.848;2023-02-15T06:04:42;5.50;;;3.30;;
47784;SDS011;35233;55.686;37.848;2023-02-15T06:07:07;5.82;;;3.03;;
47784;SDS011;35233;55.686;37.848;2023-02-15T06:09:33;5.40;;;2.90;;
47784;SDS011;35233;55.686;37.848;2023-02-15T06:11:58;5.00;;;2.72;;
47784;SDS011;35233;55.686;37.848;2023-02-15T06:14:24;4.95;;;2.85;;
47784;SDS011;35233;55.686;37.848;2023-02-15T06:16:49;4.63;;;2.80;;
47784;SDS011;35233;55.686;37.848;2023-02-15T06:19:15;5.88;;;3.25;;
47784;SDS011;35233;55.686;37.848;2023-02-15T06:21:40;4.30;;;2.67;;
47784;SDS011;35233;55.686;37.848;2023-02-15T06:24:08;5.18;;;2.95;;
47784;SDS011;35233;55.686;37.848;2023-02-15T06:26:33;5.32;;;3.22;;
47784;SDS011;35233;55.686;37.848;2023-02-15T06:28:59;5.63;;;2.80;;
47784;SDS011;35233;55.686;37.848;2023-02-15T06:31:24;4.93;;;3.28;;
47784;SDS011;35233;55.686;37.848;2023-02-15T06:33:50;5.05;;;2.88;;
47784;SDS011;35233;55.686;37.848;2023-02-15T06:36:16;5.00;;;3.08;;
47784;SDS011;35233;55.686;37.848;2023-02-15T06:38:41;5.22;;;3.00;;
47784;SDS011;35233;55.686;37.848;2023-02-15T06:41:07;5.70;;;3.10;;
47784;SDS011;35233;55.686;37.848;2023-02-15T06:43:32;4.72;;;3.20;;
47784;SDS011;35233;55.686;37.848;2023-02-15T06:45:59;5.50;;;3.20;;
47784;SDS011;35233;55.686;37.848;2023-02-15T06:48:25;5.05;;;3.28;;
47784;SDS011;35233;55.686;37.848;2023-02-15T06:50:51;6.40;;;3.30;;
47784;SDS011;35233;55.686;37.848;2023-02-15T06:53:17;5.13;;;3.10;;
47784;SDS011;35233;55.686;37.848;2023-02-15T06:55:42;5.97;;;3.55;;
47784;SDS011;35233;55.686;37.848;2023-02-15T06:58:08;5.68;;;3.42;;
47784;SDS011;35233;55.686;37.848;2023-02-15T07:00:35;5.88;;;3.00;;
47784;SDS011;35233;55.686;37.848;2023-02-15T07:03:00;6.38;;;3.40;;
47784;SDS011;35233;55.686;37.848;2023-02-15T07:05:27;4.35;;;2.97;;
47784;SDS011;35233;55.686;37.848;2023-02-15T07:07:59;5.43;;;3.08;;
47784;SDS011;35233;55.686;37.848;2023-02-15T07:10:26;5.07;;;3.00;;
47784;SDS011;35233;55.686;37.848;2023-02-15T07:12:53;4.70;;;3.03;;
47784;SDS011;35233;55.686;37.848;2023-02-15T07:15:19;6.22;;;3.42;;
47784;SDS011;35233;55.686;37.848;2023-02-15T07:17:47;5.15;;;3.10;;
47784;SDS011;35233;55.686;37.848;2023-02-15T07:20:20;4.95;;;3.05;;
47784;SDS011;35233;55.686;37.848;2023-02-15T07:22:48;4.30;;;2.97;;
47784;SDS011;35233;55.686;37.848;2023-02-15T07:25:14;6.97;;;2.78;;
47784;SDS011;35233;55.686;37.848;2023-02-15T07:27:40;6.22;;;3.30;;
47784;SDS011;35233;55.686;37.848;2023-02-15T07:30:06;4.57;;;3.13;;
47784;SDS011;35233;55.686;37.848;2023-02-15T07:32:37;5.18;;;2.88;;
47784;SDS011;35233;55.686;37.848;2023-02-15T07:35:23;6.32;;;3.10;;
47784;SDS011;35233;55.686;37.848;2023-02-15T07:37:49;4.93;;;2.95;;
47784;SDS011;35233;55.686;37.848;2023-02-15T07:40:14;5.85;;;2.67;;
47784;SDS011;35233;55.686;37.848;2023-02-15T07:42:40;4.32;;;3.05;;
47784;SDS011;35233;55.686;37.848;2023-02-15T07:45:06;5.68;;;2.97;;
47784;SDS011;35233;55.686;37.848;2023-02-15T07:47:31;4.00;;;2.70;;
47784;SDS011;35233;55.686;37.848;2023-02-15T07:49:57;5.32;;;3.28;;
47784;SDS011;35233;55.686;37.848;2023-02-15T07:52:22;5.07;;;2.90;;
47784;SDS011;35233;55.686;37.848;2023-02-15T07:54:48;4.88;;;2.90;;
47784;SDS011;35233;55.686;37.848;2023-02-15T07:57:13;5.10;;;2.83;;
47784;SDS011;35233;55.686;37.848;2023-02-15T07:59:39;4.28;;;2.80;;
47784;SDS011;35233;55.686;37.848;2023-02-15T08:02:07;4.40;;;2.90;;
47784;SDS011;35233;55.686;37.848;2023-02-15T08:04:35;5.78;;;2.90;;
47784;SDS011;35233;55.686;37.848;2023-02-15T08:07:00;4.68;;;2.97;;
47784;SDS011;35233;55.686;37.848;2023-02-15T08:09:26;8.45;;;3.05;;
47784;SDS011;35233;55.686;37.848;2023-02-15T08:11:52;4.72;;;3.22;;
47784;SDS011;35233;55.686;37.848;2023-02-15T08:14:18;4.93;;;2.90;;
47784;SDS011;35233;55.686;37.848;2023-02-15T08:16:53;4.90;;;3.42;;
47784;SDS011;35233;55.686;37.848;2023-02-15T08:19:21;4.25;;;2.70;;
47784;SDS011;35233;55.686;37.848;2023-02-15T08:21:52;4.90;;;2.75;;
47784;SDS011;35233;55.686;37.848;2023-02-15T08:24:23;4.90;;;2.97;;
47784;SDS011;35233;55.686;37.848;2023-02-15T08:26:50;5.53;;;2.92;;
47784;SDS011;35233;55.686;37.848;2023-02-15T08:29:16;4.85;;;2.58;;
47784;SDS011;35233;55.686;37.848;2023-02-15T08:31:44;4.38;;;2.70;;
47784;SDS011;35233;55.686;37.848;2023-02-15T08:34:16;3.55;;;2.55;;
47784;SDS011;35233;55.686;37.848;2023-02-15T08:36:44;5.78;;;2.90;;
47784;SDS011;35233;55.686;37.848;2023-02-15T08:39:12;4.82;;;2.75;;
47784;SDS011;35233;55.686;37.848;2023-02-15T08:41:41;3.60;;;2.60;;
47784;SDS011;35233;55.686;37.848;2023-02-15T08:44:08;5.95;;;3.03;;
47784;SDS011;35233;55.686;37.848;2023-02-15T08:46:35;5.60;;;3.20;;
47784;SDS011;35233;55.686;37.848;2023-02-15T08:49:02;5.63;;;2.88;;
47784;SDS011;35233;55.686;37.848;2023-02-15T08:51:29;4.32;;;2.97;;
47784;SDS011;35233;55.686;37.848;2023-02-15T08:53:57;5.82;;;2.70;;
47784;SDS011;35233;55.686;37.848;2023-02-15T08:56:28;4.15;;;2.75;;
47784;SDS011;35233;55.686;37.848;2023-02-15T08:58:56;4.68;;;2.65;;
47784;SDS011;35233;55.686;37.848;2023-02-15T09:01:23;3.58;;;2.50;;
47784;SDS011;35233;55.686;37.848;2023-02-15T09:03:51;7.05;;;2.70;;
47784;SDS011;35233;55.686;37.848;2023-02-15T09:06:20;5.45;;;2.63;;
47784;SDS011;35233;55.686;37.848;2023-02-15T09:08:47;4.43;;;2.65;;
47784;SDS011;35233;55.686;37.848;2023-02-15T09:11:17;4.10;;;2.50;;
47784;SDS011;35233;55.686;37.848;2023-02-15T09:13:54;3.65;;;2.55;;
47784;SDS011;35233;55.686;37.848;2023-02-15T09:16:20;4.82;;;2.40;;
47784;SDS011;35233;55.686;37.848;2023-02-15T09:18:49;4.82;;;2.50;;
47784;SDS011;35233;55.686;37.848;2023-02-15T09:21:16;5.93;;;2.72;;
47784;SDS011;35233;55.686;37.848;2023-02-15T09:23:43;3.65;;;2.53;;
47784;SDS011;35233;55.686;37.848;2023-02-15T09:26:11;3.75;;;2.70;;
47784;SDS011;35233;55.686;37.848;2023-02-15T09:28:39;3.17;;;2.47;;
47784;SDS011;35233;55.686;37.848;2023-02-15T09:31:10;4.68;;;3.03;;
47784;SDS011;35233;55.686;37.848;2023-02-15T09:33:40;4.22;;;2.65;;
47784;SDS011;35233;55.686;37.848;2023-02-15T09:36:18;5.13;;;3.10;;
47784;SDS011;35233;55.686;37.848;2023-02-15T09:38:54;4.15;;;2.55;;
47784;SDS011;35233;55.686;37.848;2023-02-15T09:52:09;3.15;;;2.40;;
47784;SDS011;35233;55.686;37.848;2023-02-15T09:59:53;3.95;;;2.60;;
47784;SDS011;35233;55.686;37.848;2023-02-15T10:05:21;4.00;;;2.40;;
47784;SDS011;35233;55.686;37.848;2023-02-15T10:08:05;5.93;;;2.80;;
47784;SDS011;35233;55.686;37.848;2023-02-15T10:10:48;3.35;;;2.45;;
47784;SDS011;35233;55.686;37.848;2023-02-15T10:22:48;4.82;;;2.22;;
47784;SDS011;35233;55.686;37.848;2023-02-15T10:25:17;3.88;;;2.47;;
47784;SDS011;35233;55.686;37.848;2023-02-15T10:27:50;5.05;;;2.10;;
47784;SDS011;35233;55.686;37.848;2023-02-15T10:30:36;3.13;;;2.20;;
47784;SDS011;35233;55.686;37.848;2023-02-15T10:33:04;2.55;;;1.80;;
47784;SDS011;35233;55.686;37.848;2023-02-15T10:35:54;5.35;;;2.35;;
47784;SDS011;35233;55.686;37.848;2023-02-15T10:38:28;2.85;;;1.80;;
47784;SDS011;35233;55.686;37.848;2023-02-15T10:44:14;4.13;;;2.13;;
47784;SDS011;35233;55.686;37.848;2023-02-15T10:56:04;2.85;;;2.00;;
47784;SDS011;35233;55.686;37.848;2023-02-15T11:01:20;2.47;;;1.80;;
47784;SDS011;35233;55.686;37.848;2023-02-15T11:06:43;3.50;;;2.03;;
47784;SDS011;35233;55.686;37.848;2023-02-15T11:09:18;3.03;;;2.10;;
47784;SDS011;35233;55.686;37.848;2023-02-15T11:11:51;2.45;;;1.88;;
47784;SDS011;35233;55.686;37.848;2023-02-15T11:17:02;2.22;;;2.00;;
47784;SDS011;35233;55.686;37.848;2023-02-15T11:19:35;2.30;;;1.83;;
47784;SDS011;35233;55.686;37.848;2023-02-15T11:22:05;5.72;;;1.95;;
47784;SDS011;35233;55.686;37.848;2023-02-15T11:24:32;1.92;;;1.65;;
47784;SDS011;35233;55.686;37.848;2023-02-15T11:29:41;1.88;;;1.67;;
47784;SDS011;35233;55.686;37.848;2023-02-15T11:37:50;2.28;;;1.83;;
47784;SDS011;35233;55.686;37.848;2023-02-15T11:40:27;3.58;;;1.95;;
47784;SDS011;35233;55.686;37.848;2023-02-15T11:43:07;2.85;;;1.90;;
47784;SDS011;35233;55.686;37.848;2023-02-15T11:45:41;3.22;;;1.88;;
47784;SDS011;35233;55.686;37.848;2023-02-15T11:48:10;2.75;;;1.60;;
47784;SDS011;35233;55.686;37.848;2023-02-15T11:50:38;3.10;;;1.75;;
47784;SDS011;35233;55.686;37.848;2023-02-15T11:53:04;3.58;;;2.00;;
47784;SDS011;35233;55.686;37.848;2023-02-15T11:55:36;2.72;;;1.65;;
47784;SDS011;35233;55.686;37.848;2023-02-15T12:04:20;2.60;;;1.80;;
47784;SDS011;35233;55.686;37.848;2023-02-15T12:09:56;3.05;;;1.70;;
47784;SDS011;35233;55.686;37.848;2023-02-15T12:12:33;3.05;;;1.70;;
47784;SDS011;35233;55.686;37.848;2023-02-15T12:15:02;1.73;;;1.63;;
47784;SDS011;35233;55.686;37.848;2023-02-15T12:17:39;1.73;;;1.58;;
47784;SDS011;35233;55.686;37.848;2023-02-15T12:22:38;2.40;;;1.80;;
47784;SDS011;35233;55.686;37.848;2023-02-15T12:25:25;2.03;;;1.70;;
47784;SDS011;35233;55.686;37.848;2023-02-15T12:27:57;2.28;;;1.80;;
47784;SDS011;35233;55.686;37.848;2023-02-15T12:30:34;2.35;;;1.80;;
47784;SDS011;35233;55.686;37.848;2023-02-15T12:33:22;1.90;;;1.60;;
47784;SDS011;35233;55.686;37.848;2023-02-15T12:35:57;1.98;;;1.70;;
47784;SDS011;35233;55.686;37.848;2023-02-15T12:38:36;1.70;;;1.60;;
47784;SDS011;35233;55.686;37.848;2023-02-15T12:41:04;1.35;;;1.25;;
47784;SDS011;35233;55.686;37.848;2023-02-15T12:43:46;2.17;;;1.83;;
47784;SDS011;35233;55.686;37.848;2023-02-15T12:46:25;2.35;;;1.60;;
47784;SDS011;35233;55.686;37.848;2023-02-15T12:49:10;2.33;;;1.85;;
47784;SDS011;35233;55.686;37.848;2023-02-15T12:51:46;2.22;;;1.75;;
47784;SDS011;35233;55.686;37.848;2023-02-15T12:56:50;1.80;;;1.45;;
47784;SDS011;35233;55.686;37.848;2023-02-15T12:59:16;2.13;;;1.77;;
47784;SDS011;35233;55.686;37.848;2023-02-15T13:01:45;2.42;;;1.77;;
47784;SDS011;35233;55.686;37.848;2023-02-15T13:04:19;1.70;;;1.60;;
47784;SDS011;35233;55.686;37.848;2023-02-15T13:06:47;1.98;;;1.77;;
47784;SDS011;35233;55.686;37.848;2023-02-15T13:09:15;2.13;;;1.60;;
47784;SDS011;35233;55.686;37.848;2023-02-15T13:11:47;2.10;;;1.60;;
47784;SDS011;35233;55.686;37.848;2023-02-15T13:14:25;2.42;;;1.70;;
47784;SDS011;35233;55.686;37.848;2023-02-15T13:16:56;2.08;;;1.70;;
47784;SDS011;35233;55.686;37.848;2023-02-15T13:21:53;2.25;;;1.73;;
47784;SDS011;35233;55.686;37.848;2023-02-15T13:24:32;2.20;;;1.77;;
47784;SDS011;35233;55.686;37.848;2023-02-15T13:27:02;1.85;;;1.67;;
47784;SDS011;35233;55.686;37.848;2023-02-15T13:29:30;2.17;;;1.70;;
47784;SDS011;35233;55.686;37.848;2023-02-15T13:32:15;2.78;;;1.88;;
47784;SDS011;35233;55.686;37.848;2023-02-15T13:34:46;2.17;;;1.65;;
47784;SDS011;35233;55.686;37.848;2023-02-15T13:37:17;1.77;;;1.45;;
47784;SDS011;35233;55.686;37.848;2023-02-15T13:39:47;1.77;;;1.67;;
47784;SDS011;35233;55.686;37.848;2023-02-15T13:42:41;2.03;;;1.70;;
47784;SDS011;35233;55.686;37.848;2023-02-15T13:45:32;1.80;;;1.52;;
47784;SDS011;35233;55.686;37.848;2023-02-15T13:59:21;1.88;;;1.65;;
47784;SDS011;35233;55.686;37.848;2023-02-15T14:04:59;1.58;;;1.48;;
47784;SDS011;35233;55.686;37.848;2023-02-15T14:21:36;1.33;;;1.23;;
47784;SDS011;35233;55.686;37.848;2023-02-15T14:32:01;2.22;;;1.67;;
47784;SDS011;35233;55.686;37.848;2023-02-15T14:34:53;2.13;;;1.45;;
47784;SDS011;35233;55.686;37.848;2023-02-15T14:37:28;1.55;;;1.40;;
47784;SDS011;35233;55.686;37.848;2023-02-15T14:49:17;1.55;;;1.38;;
47784;SDS011;35233;55.686;37.848;2023-02-15T14:56:45;1.85;;;1.58;;
47784;SDS011;35233;55.686;37.848;2023-02-15T15:01:36;1.55;;;1.38;;
47784;SDS011;35233;55.686;37.848;2023-02-15T15:04:10;2.20;;;1.70;;
47784;SDS011;35233;55.686;37.848;2023-02-15T15:06:42;2.33;;;1.63;;
47784;SDS011;35233;55.686;37.848;2023-02-15T15:09:27;2.58;;;1.83;;
47784;SDS011;35233;55.686;37.848;2023-02-15T15:14:47;2.13;;;1.63;;
47784;SDS011;35233;55.686;37.848;2023-02-15T15:20:03;2.28;;;1.48;;
47784;SDS011;35233;55.686;37.848;2023-02-15T15:22:47;2.03;;;1.58;;
47784;SDS011;35233;55.686;37.848;2023-02-15T15:28:07;2.33;;;1.70;;
47784;SDS011;35233;55.686;37.848;2023-02-15T15:47:34;1.77;;;1.60;;
47784;SDS011;35233;55.686;37.848;2023-02-15T15:50:22;1.73;;;1.60;;
47784;SDS011;35233;55.686;37.848;2023-02-15T15:52:53;3.03;;;2.17;;
47784;SDS011;35233;55.686;37.848;2023-02-15T15:57:54;2.40;;;1.70;;
47784;SDS011;35233;55.686;37.848;2023-02-15T16:03:24;2.38;;;1.70;;
47784;SDS011;35233;55.686;37.848;2023-02-15T16:05:54;2.35;;;1.70;;
47784;SDS011;35233;55.686;37.848;2023-02-15T16:11:01;1.60;;;1.38;;
47784;SDS011;35233;55.686;37.848;2023-02-15T16:13:46;1.85;;;1.60;;
47784;SDS011;35233;55.686;37.848;2023-02-15T16:16:12;1.77;;;1.60;;
47784;SDS011;35233;55.686;37.848;2023-02-15T16:18:44;2.22;;;1.58;;
47784;SDS011;35233;55.686;37.848;2023-02-15T16:21:46;1.75;;;1.40;;
47784;SDS011;35233;55.686;37.848;2023-02-15T16:29:27;1.65;;;1.38;;
47784;SDS011;35233;55.686;37.848;2023-02-15T16:32:36;2.75;;;1.70;;
47784;SDS011;35233;55.686;37.848;2023-02-15T16:34:58;1.95;;;1.60;;
47784;SDS011;35233;55.686;37.848;2023-02-15T16:37:34;1.95;;;1.75;;
47784;SDS011;35233;55.686;37.848;2023-02-15T16:40:01;2.58;;;1.65;;
47784;SDS011;35233;55.686;37.848;2023-02-15T16:42:33;2.38;;;1.70;;
47784;SDS011;35233;55.686;37.848;2023-02-15T16:45:07;3.05;;;1.58;;
47784;SDS011;35233;55.686;37.848;2023-02-15T16:47:43;1.60;;;1.45;;
47784;SDS011;35233;55.686;37.848;2023-02-15T16:50:31;2.22;;;1.60;;
47784;SDS011;35233;55.686;37.848;2023-02-15T16:52:59;1.92;;;1.55;;
47784;SDS011;35233;55.686;37.848;2023-02-15T16:55:35;1.85;;;1.60;;
47784;SDS011;35233;55.686;37.848;2023-02-15T16:58:06;2.72;;;1.83;;
47784;SDS011;35233;55.686;37.848;2023-02-15T17:00:39;2.95;;;1.70;;
47784;SDS011;35233;55.686;37.848;2023-02-15T17:05:46;4.00;;;1.83;;
47784;SDS011;35233;55.686;37.848;2023-02-15T17:10:46;2.15;;;1.77;;
47784;SDS011;35233;55.686;37.848;2023-02-15T17:13:28;2.88;;;2.00;;
47784;SDS011;35233;55.686;37.848;2023-02-15T17:18:26;2.65;;;1.90;;
47784;SDS011;35233;55.686;37.848;2023-02-15T17:20:56;2.05;;;1.60;;
47784;SDS011;35233;55.686;37.848;2023-02-15T17:23:34;2.42;;;1.90;;
47784;SDS011;35233;55.686;37.848;2023-02-15T17:26:12;2.42;;;1.80;;
47784;SDS011;35233;55.686;37.848;2023-02-15T17:29:12;2.78;;;1.90;;
47784;SDS011;35233;55.686;37.848;2023-02-15T17:32:00;2.83;;;1.85;;
47784;SDS011;35233;55.686;37.848;2023-02-15T17:42:45;2.25;;;1.90;;
47784;SDS011;35233;55.686;37.848;2023-02-15T17:45:17;2.00;;;1.70;;
47784;SDS011;35233;55.686;37.848;2023-02-15T17:47:43;2.03;;;1.70;;
47784;SDS011;35233;55.686;37.848;2023-02-15T17:50:15;3.00;;;1.83;;
47784;SDS011;35233;55.686;37.848;2023-02-15T17:52:49;2.13;;;1.52;;
47784;SDS011;35233;55.686;37.848;2023-02-15T17:55:17;4.25;;;2.30;;
47784;SDS011;35233;55.686;37.848;2023-02-15T17:58:03;2.03;;;1.83;;
47784;SDS011;35233;55.686;37.848;2023-02-15T18:00:31;2.50;;;1.80;;
47784;SDS011;35233;55.686;37.848;2023-02-15T18:03:17;2.03;;;1.70;;
47784;SDS011;35233;55.686;37.848;2023-02-15T18:06:01;1.90;;;1.70;;
47784;SDS011;35233;55.686;37.848;2023-02-15T18:08:46;2.65;;;1.98;;
47784;SDS011;35233;55.686;37.848;2023-02-15T18:11:30;3.08;;;1.75;;
47784;SDS011;35233;55.686;37.848;2023-02-15T18:14:02;3.55;;;1.77;;
47784;SDS011;35233;55.686;37.848;2023-02-15T18:16:34;2.70;;;1.70;;
47784;SDS011;35233;55.686;37.848;2023-02-15T18:19:03;2.75;;;1.70;;
47784;SDS011;35233;55.686;37.848;2023-02-15T18:21:31;2.42;;;1.88;;
47784;SDS011;35233;55.686;37.848;2023-02-15T18:23:57;3.25;;;1.98;;
47784;SDS011;35233;55.686;37.848;2023-02-15T18:26:24;2.85;;;1.92;;
47784;SDS011;35233;55.686;37.848;2023-02-15T18:28:50;2.40;;;1.70;;
47784;SDS011;35233;55.686;37.848;2023-02-15T18:31:17;2.47;;;1.80;;